Terminal Aerodrome Forecast
Issued by NWS

Home | Current Version | Previous Version | Text Only | Print | Product List | Glossary Off
Versions: 1 2 3 4 5 6 7 8 9 10 11 12 13 14 15 16 17 18 19 20 21 22 23 24 25 26 27 28 29 30 31 32

000
FTUS43 KLOT 230300 AAB
TAFORD
TAF AMD
KORD 230300Z 2303/2406 25008KT 6SM HZ SCT025 BKN035
     FM230350 33012G22KT 4SM TSRA SCT025 BKN035CB
     FM230430 34011KT P6SM SCT040
     FM230530 02015G24KT P6SM SCT015
     FM231400 03016G25KT P6SM FEW250
     FM240000 03010G16KT P6SM FEW250=

USA.gov is the U.S. government's official web portal to all federal, state and local government web resources and services.